SCBN weather

Cotreumo Airport
Rio Bueno, Los Ríos Region, Chile

Public forecast

Using degrees Celsius for public forecast. Weather courtesy of forecast.io.

METAR (pilot weather report)

Report is more than 6 hours old.

Closest report is Cañal Bajo Carlos - Hott Siebert Airport, 22.2 nm (41.1 km) SW. Retrieved 2019/05/20 22:00 UTC (15 hours ago):

SCJO 202200Z 18004KT CAVOK 10/05 Q1028

TAF (pilot weather forecast)

Closest forecast is Cañal Bajo Carlos - Hott Siebert Airport, 22.2 nm (41.1 km) SW. Retrieved 2019/05/21 12:33 UTC (0 seconds ago):

TAF SCJO 211032Z 2112/2124 VRB03KT 5000 BR OVC008 TN02/2112Z TX11/2119Z TEMPO 2112/2113 19003KT 1000 BVFG OVC005 BECMG 2114/2116 9999 NSW BKN012 BECMG 2117/2119 18008KT SCT020 TEMPO 2122/2124 CAVOK